Time;durP1;ratioP1;P1;durP2;ratioP2;P2;SDS_P1;SDS_P2;PMS_P1;PMS_P2;Temp;Humidity;BMP_temperature;BMP_pressure;BME280_temperature;BME280_humidity;BME280_pressure;Samples;Min_cycle;Max_cycle;Signal;HPM_P1;HPM_P2
2023/12/11 00:01:34;;;;;;;;;7.00;6.75;;;;;9.45;96.54;99717.44;5099076;28;10141;-70
2023/12/11 00:04:01;;;;;;;;;5.75;4.50;;;;;9.48;96.18;99708.97;5087424;28;10011;-68
2023/12/11 00:06:27;;;;;;;;;8.00;5.00;;;;;9.46;96.12;99702.16;5104854;28;10159;-69
2023/12/11 00:08:54;;;;;;;;;6.00;5.00;;;;;9.41;96.16;99702.78;5110201;28;10011;-70
2023/12/11 00:11:21;;;;;;;;;7.50;4.25;;;;;9.39;96.29;99700.31;5109259;28;10122;-68
2023/12/11 00:13:49;;;;;;;;;6.50;5.50;;;;;9.32;96.35;99704.91;5092567;28;10098;-68
2023/12/11 00:16:17;;;;;;;;;6.75;3.25;;;;;9.34;96.86;99708.19;5083151;28;10164;-70
2023/12/11 00:18:43;;;;;;;;;7.00;6.50;;;;;9.35;97.05;99704.47;5103200;28;10054;-69
2023/12/11 00:21:10;;;;;;;;;8.75;8.25;;;;;9.32;96.50;99691.47;5106436;28;10197;-70
2023/12/11 00:23:37;;;;;;;;;11.00;5.75;;;;;9.30;97.10;99696.22;5110246;28;10288;-70
2023/12/11 00:26:03;;;;;;;;;9.25;9.00;;;;;9.35;96.99;99688.34;5090053;28;10231;-69
2023/12/11 00:28:30;;;;;;;;;3.50;3.50;;;;;9.42;96.55;99693.69;5086122;28;10262;-70
2023/12/11 00:30:56;;;;;;;;;3.25;3.25;;;;;9.47;96.47;99690.34;5078188;28;10241;-70
2023/12/11 00:33:23;;;;;;;;;8.75;5.75;;;;;9.46;96.70;99686.84;5093123;28;10317;-70
2023/12/11 00:35:50;;;;;;;;;5.75;5.75;;;;;9.37;96.98;99694.34;5108244;28;10290;-68
2023/12/11 00:38:16;;;;;;;;;7.00;6.75;;;;;9.35;97.12;99696.41;5110201;28;10326;-70
2023/12/11 00:40:45;;;;;;;;;7.00;6.00;;;;;9.40;97.31;99675.13;5102302;28;10324;-69
2023/12/11 00:43:11;;;;;;;;;6.00;5.00;;;;;9.38;97.71;99671.81;5106135;28;10232;-70
2023/12/11 00:45:38;;;;;;;;;10.75;7.00;;;;;9.37;97.82;99685.47;5090745;28;10239;-69
2023/12/11 00:48:05;;;;;;;;;10.50;8.25;;;;;9.37;98.03;99664.81;5108097;28;10063;-70
2023/12/11 00:50:31;;;;;;;;;12.50;10.50;;;;;9.38;97.78;99677.19;5103517;28;10198;-69
2023/12/11 00:52:58;;;;;;;;;7.25;6.75;;;;;9.41;98.42;99667.88;5108194;28;10301;-67
2023/12/11 00:55:24;;;;;;;;;11.50;7.50;;;;;9.44;98.20;99667.47;5100180;28;10102;-69
2023/12/11 00:57:51;;;;;;;;;3.75;2.75;;;;;9.53;97.54;99666.16;5110886;28;10862;-69
2023/12/11 01:00:17;;;;;;;;;9.50;5.50;;;;;9.55;97.70;99656.00;5085547;28;10011;-69
2023/12/11 01:02:44;;;;;;;;;8.50;4.25;;;;;9.59;97.52;99665.28;5109207;28;10283;-70
2023/12/11 01:05:10;;;;;;;;;6.00;3.00;;;;;9.52;97.52;99656.47;5104793;28;10289;-71
2023/12/11 01:07:37;;;;;;;;;12.75;7.50;;;;;9.54;97.76;99653.53;5091240;28;10162;-71
2023/12/11 01:10:04;;;;;;;;;6.75;5.00;;;;;9.48;97.80;99649.03;5109287;28;10975;-72
2023/12/11 01:12:31;;;;;;;;;16.00;9.75;;;;;9.42;98.39;99648.03;5104719;28;10203;-71
2023/12/11 01:14:57;;;;;;;;;12.50;6.75;;;;;9.39;98.74;99635.84;5099819;28;10238;-71
2023/12/11 01:17:24;;;;;;;;;6.00;6.00;;;;;9.49;98.69;99631.88;5084302;28;10228;-71
2023/12/11 01:20:06;;;;;;;;;11.50;6.00;;;;;9.55;98.10;99628.31;5104310;28;10139;-71
2023/12/11 01:22:33;;;;;;;;;18.00;11.50;;;;;9.55;97.97;99623.75;5083550;28;9974;-71
2023/12/11 01:25:02;;;;;;;;;7.50;5.00;;;;;9.64;97.38;99635.06;5076522;28;10389;-70
2023/12/11 01:27:29;;;;;;;;;10.00;7.50;;;;;9.66;97.18;99624.94;5108619;28;10126;-69
2023/12/11 01:29:56;;;;;;;;;6.50;5.75;;;;;9.61;97.21;99622.09;5091307;28;10253;-69
2023/12/11 01:32:22;;;;;;;;;9.50;6.25;;;;;9.63;97.39;99617.31;5105016;28;10135;-71
2023/12/11 01:34:49;;;;;;;;;9.25;6.50;;;;;9.65;97.04;99607.19;5109508;28;10275;-70
2023/12/11 01:37:17;;;;;;;;;8.50;5.25;;;;;9.58;97.58;99607.22;5102248;28;10260;-68
2023/12/11 01:39:44;;;;;;;;;8.50;7.25;;;;;9.64;97.26;99600.97;5091930;28;10218;-70
2023/12/11 01:42:10;;;;;;;;;7.50;6.00;;;;;9.62;97.32;99603.06;5087845;28;10377;-71
2023/12/11 01:44:37;;;;;;;;;13.50;6.50;;;;;9.72;97.37;99602.56;5106307;28;10340;-71
2023/12/11 01:47:03;;;;;;;;;9.25;5.00;;;;;9.74;97.24;99592.41;5100013;28;10166;-69
2023/12/11 01:49:30;;;;;;;;;6.75;5.00;;;;;9.78;96.86;99595.50;5099726;28;10139;-70
2023/12/11 01:51:57;;;;;;;;;12.75;6.75;;;;;9.74;96.97;99589.72;5110221;28;9936;-71
2023/12/11 01:54:25;;;;;;;;;11.75;8.75;;;;;9.74;97.29;99588.91;5103089;28;10904;-71
2023/12/11 01:56:51;;;;;;;;;7.75;3.50;;;;;9.75;96.97;99593.25;5103713;28;10287;-71
2023/12/11 01:59:18;;;;;;;;;12.00;6.75;;;;;9.76;97.25;99573.38;5114234;28;10015;-69
2023/12/11 02:01:46;;;;;;;;;11.50;6.00;;;;;9.80;97.08;99577.28;5099713;28;10045;-71
2023/12/11 02:04:15;;;;;;;;;16.75;11.75;;;;;9.67;97.25;99572.84;5103748;28;10103;-70
2023/12/11 02:06:42;;;;;;;;;12.50;8.00;;;;;9.63;97.54;99566.25;5109831;28;9996;-70
2023/12/11 02:09:09;;;;;;;;;9.25;6.50;;;;;9.66;97.82;99573.88;5108539;28;10764;-71
2023/12/11 02:11:35;;;;;;;;;4.50;3.50;;;;;9.72;97.50;99574.84;5104577;28;9959;-70
2023/12/11 02:14:02;;;;;;;;;4.00;3.50;;;;;9.76;96.72;99582.25;5107605;28;10021;-72
2023/12/11 02:16:29;;;;;;;;;14.00;7.50;;;;;9.75;96.73;99572.56;5102684;28;10043;-70
2023/12/11 02:18:55;;;;;;;;;12.25;7.25;;;;;9.72;96.50;99561.44;5078185;28;10254;-71
2023/12/11 02:21:22;;;;;;;;;6.75;5.75;;;;;9.75;96.53;99571.75;5088213;28;9927;-71
2023/12/11 02:24:02;;;;;;;;;9.50;5.00;;;;;9.68;96.67;99562.91;5114220;28;10004;-70
2023/12/11 02:26:29;;;;;;;;;3.75;3.50;;;;;9.62;97.11;99562.75;5110841;28;10000;-70
2023/12/11 02:28:55;;;;;;;;;5.25;3.00;;;;;9.57;97.42;99554.53;5091609;28;10148;-69
2023/12/11 02:31:22;;;;;;;;;10.50;8.00;;;;;9.62;97.33;99554.69;5105265;28;9946;-71
2023/12/11 02:33:48;;;;;;;;;6.50;4.75;;;;;9.65;97.10;99550.75;5100566;28;10199;-70
2023/12/11 02:36:15;;;;;;;;;8.00;2.75;;;;;9.68;97.06;99552.97;5102134;28;10265;-71
2023/12/11 02:38:41;;;;;;;;;10.25;3.00;;;;;9.61;97.15;99547.69;5096414;28;10070;-70
2023/12/11 02:41:08;;;;;;;;;12.50;8.25;;;;;9.53;97.31;99545.28;5112409;28;10189;-71
2023/12/11 02:43:35;;;;;;;;;6.00;5.00;;;;;9.55;97.44;99545.84;5108199;28;10800;-71
2023/12/11 02:46:02;;;;;;;;;9.00;4.25;;;;;9.51;97.32;99536.59;5101293;28;9983;-69
2023/12/11 02:48:30;;;;;;;;;12.75;5.50;;;;;9.46;97.48;99528.38;5109277;28;10047;-70
2023/12/11 02:50:56;;;;;;;;;8.25;5.25;;;;;9.48;96.99;99539.75;5111902;28;10190;-71
2023/12/11 02:53:23;;;;;;;;;9.00;7.00;;;;;9.55;97.35;99537.78;5086854;28;10165;-71
2023/12/11 02:55:49;;;;;;;;;4.50;3.00;;;;;9.53;96.64;99531.84;5088715;28;10364;-69
2023/12/11 02:58:16;;;;;;;;;4.25;2.00;;;;;9.59;96.62;99522.88;5109347;28;10100;-70
2023/12/11 03:00:42;;;;;;;;;6.50;6.25;;;;;9.56;96.48;99528.72;5109547;28;10066;-71
2023/12/11 03:03:09;;;;;;;;;9.25;5.75;;;;;9.55;96.48;99536.97;5107117;28;10719;-70
2023/12/11 03:05:35;;;;;;;;;6.75;2.50;;;;;9.48;96.29;99526.31;5106835;28;10271;-70
2023/12/11 03:08:04;;;;;;;;;12.75;4.25;;;;;9.52;95.61;99526.66;5101245;28;10009;-71
2023/12/11 03:10:31;;;;;;;;;5.00;4.50;;;;;9.57;95.51;99506.19;5108898;28;9906;-71
2023/12/11 03:12:58;;;;;;;;;8.50;4.50;;;;;9.54;95.37;99516.53;5111425;28;10001;-70
2023/12/11 03:15:25;;;;;;;;;2.50;2.50;;;;;9.64;94.69;99516.84;5105977;28;10012;-71
2023/12/11 03:17:51;;;;;;;;;5.75;4.50;;;;;9.72;94.24;99524.63;5111058;28;9883;-71
2023/12/11 03:20:18;;;;;;;;;8.50;7.00;;;;;9.72;94.10;99511.19;5108661;28;10127;-70
2023/12/11 03:22:44;;;;;;;;;6.50;3.50;;;;;9.71;94.02;99506.88;5095383;28;9928;-71
2023/12/11 03:25:10;;;;;;;;;8.25;6.00;;;;;9.73;94.14;99498.59;5091953;28;10777;-70
2023/12/11 03:27:37;;;;;;;;;2.50;1.25;;;;;9.70;94.12;99507.09;5108582;28;10054;-70
2023/12/11 03:30:04;;;;;;;;;4.00;2.75;;;;;9.65;94.25;99497.84;5102965;28;9987;-69
2023/12/11 03:32:32;;;;;;;;;4.25;2.00;;;;;9.70;94.22;99493.66;5108836;28;9819;-66
2023/12/11 03:34:58;;;;;;;;;5.50;2.25;;;;;9.72;93.66;99496.94;5103431;28;9908;-68
2023/12/11 03:37:25;;;;;;;;;4.50;3.00;;;;;9.70;93.59;99496.34;5086813;28;9840;-70
2023/12/11 03:39:51;;;;;;;;;5.50;2.75;;;;;9.69;93.67;99497.41;5081260;28;9749;-70
2023/12/11 03:42:18;;;;;;;;;7.75;5.75;;;;;9.76;92.99;99479.31;5104547;28;9713;-70
2023/12/11 03:44:44;;;;;;;;;3.75;3.75;;;;;9.76;92.59;99484.69;5112918;27;9812;-69
2023/12/11 03:47:11;;;;;;;;;7.25;4.50;;;;;9.77;92.41;99481.81;5106556;28;10103;-69
2023/12/11 03:49:38;;;;;;;;;4.75;4.25;;;;;9.71;92.51;99481.88;5099745;28;9990;-70
2023/12/11 03:52:05;;;;;;;;;5.25;3.75;;;;;9.83;92.00;99464.78;5088501;28;9829;-70
2023/12/11 03:54:31;;;;;;;;;5.25;3.25;;;;;9.87;91.81;99475.91;5092857;28;10622;-70
2023/12/11 03:56:58;;;;;;;;;5.50;3.50;;;;;9.90;91.80;99465.53;5103256;28;9743;-70
2023/12/11 03:59:24;;;;;;;;;7.75;5.75;;;;;9.83;91.98;99464.78;5099476;28;9896;-70
2023/12/11 04:01:51;;;;;;;;;6.75;6.25;;;;;9.81;92.87;99463.38;5094683;28;10013;-69
2023/12/11 04:04:18;;;;;;;;;9.25;6.00;;;;;9.78;93.17;99461.13;5098668;28;10017;-69
2023/12/11 04:06:44;;;;;;;;;3.00;3.00;;;;;9.77;93.85;99460.31;5095662;28;10053;-69
2023/12/11 04:09:11;;;;;;;;;7.00;3.00;;;;;9.77;94.07;99471.06;5091694;28;9894;-70
2023/12/11 04:11:37;;;;;;;;;7.50;5.00;;;;;9.73;95.12;99469.03;5099971;28;9949;-69
2023/12/11 04:14:04;;;;;;;;;9.00;6.00;;;;;9.66;95.46;99467.22;5091628;28;10105;-70
2023/12/11 04:16:30;;;;;;;;;8.75;5.50;;;;;9.65;96.42;99464.78;5099385;28;9910;-70
2023/12/11 04:18:57;;;;;;;;;4.00;3.00;;;;;9.68;96.37;99466.19;5107301;28;10024;-70
2023/12/11 04:21:27;;;;;;;;;6.50;5.00;;;;;9.69;96.42;99460.59;5102316;28;10018;-70
2023/12/11 04:23:55;;;;;;;;;5.00;3.50;;;;;9.62;97.02;99457.16;5089803;28;9810;-70
2023/12/11 04:26:21;;;;;;;;;5.50;3.00;;;;;9.52;97.64;99472.94;5101502;28;10037;-70
2023/12/11 04:28:48;;;;;;;;;7.00;6.00;;;;;9.54;97.60;99468.19;5106854;28;10021;-69
2023/12/11 04:31:14;;;;;;;;;6.00;3.25;;;;;9.59;97.60;99468.34;5070713;28;10069;-69
2023/12/11 04:33:41;;;;;;;;;6.50;4.50;;;;;9.63;96.92;99461.47;5100198;28;10128;-68
2023/12/11 04:36:08;;;;;;;;;4.50;4.50;;;;;9.53;97.26;99459.31;5105638;28;10121;-69
2023/12/11 04:38:35;;;;;;;;;6.25;2.50;;;;;9.51;97.63;99463.25;5087235;28;10002;-70
2023/12/11 04:41:02;;;;;;;;;7.75;4.25;;;;;9.53;97.51;99453.13;5107491;28;10064;-70
2023/12/11 04:43:29;;;;;;;;;6.00;4.00;;;;;9.59;97.38;99444.16;5111334;28;10057;-70
2023/12/11 04:45:58;;;;;;;;;6.25;4.00;;;;;9.58;96.96;99437.97;5100440;28;9988;-70
2023/12/11 04:48:25;;;;;;;;;5.00;2.00;;;;;9.53;97.06;99431.63;5105464;28;10085;-69
2023/12/11 04:50:51;;;;;;;;;2.75;2.75;;;;;9.46;97.18;99458.53;5090103;28;9991;-70
2023/12/11 04:53:18;;;;;;;;;6.00;2.75;;;;;9.43;97.02;99444.72;5100501;28;10753;-68
2023/12/11 04:55:44;;;;;;;;;5.00;4.00;;;;;9.41;96.27;99440.41;5091718;28;10081;-68
2023/12/11 04:58:11;;;;;;;;;3.00;2.50;;;;;9.47;96.14;99443.25;5090639;28;10040;-70
2023/12/11 05:00:38;;;;;;;;;1.00;1.00;;;;;9.54;95.83;99454.75;5090261;28;9996;-71
2023/12/11 05:03:04;;;;;;;;;6.25;3.75;;;;;9.56;95.39;99436.53;5102031;28;9994;-72
2023/12/11 05:05:31;;;;;;;;;6.00;5.00;;;;;9.59;95.02;99425.34;5101837;28;9988;-70
2023/12/11 05:07:57;;;;;;;;;7.25;2.75;;;;;9.67;95.04;99441.19;5101152;28;10063;-69
2023/12/11 05:10:24;;;;;;;;;7.50;3.25;;;;;9.55;94.76;99410.72;5101944;28;10070;-69
2023/12/11 05:12:50;;;;;;;;;3.50;1.50;;;;;9.55;94.70;99418.78;5103509;28;10137;-69
2023/12/11 05:15:17;;;;;;;;;6.00;2.75;;;;;9.53;94.70;99410.13;5097057;28;10097;-68
2023/12/11 05:17:43;;;;;;;;;5.50;2.00;;;;;9.49;94.71;99422.38;5104836;28;10138;-68
2023/12/11 05:20:12;;;;;;;;;3.00;3.00;;;;;9.54;94.42;99422.50;5104427;28;9975;-69
2023/12/11 05:22:39;;;;;;;;;1.50;1.00;;;;;9.54;94.39;99420.66;5104824;28;9984;-69
2023/12/11 05:25:06;;;;;;;;;5.50;4.50;;;;;9.53;94.53;99413.63;5109677;28;9809;-68
2023/12/11 05:27:33;;;;;;;;;3.00;3.00;;;;;9.55;94.43;99419.59;5100473;28;10606;-69
2023/12/11 05:29:59;;;;;;;;;2.00;2.00;;;;;9.60;95.00;99411.72;5109739;28;10061;-69
2023/12/11 05:32:26;;;;;;;;;3.00;2.00;;;;;9.59;95.36;99401.16;5101064;28;9963;-68
2023/12/11 05:34:52;;;;;;;;;6.25;4.50;;;;;9.56;95.48;99398.91;5103240;28;10218;-68
2023/12/11 05:37:19;;;;;;;;;5.00;2.75;;;;;9.51;95.85;99404.16;5101246;28;9855;-68
2023/12/11 05:39:45;;;;;;;;;3.75;3.50;;;;;9.55;96.59;99389.22;5108102;28;9998;-65
2023/12/11 05:42:32;;;;;;;;;6.50;4.00;;;;;9.53;96.69;99384.09;5106008;28;9855;-68
2023/12/11 05:44:58;;;;;;;;;2.50;2.25;;;;;9.45;96.82;99391.63;5092356;28;10070;-67
2023/12/11 05:47:25;;;;;;;;;4.00;3.00;;;;;9.41;97.15;99384.00;5112127;27;9937;-69
2023/12/11 05:49:51;;;;;;;;;5.50;1.00;;;;;9.37;96.71;99385.50;5089856;27;9908;-69
2023/12/11 05:52:18;;;;;;;;;4.50;2.00;;;;;9.35;97.56;99394.81;5115173;27;9819;-67
2023/12/11 05:54:44;;;;;;;;;3.00;2.50;;;;;9.33;97.39;99378.94;5092259;28;9735;-68
2023/12/11 05:57:11;;;;;;;;;3.50;1.75;;;;;9.34;97.70;99377.06;5091098;28;10622;-68
2023/12/11 05:59:37;;;;;;;;;4.50;2.00;;;;;9.39;97.88;99371.81;5106336;28;9924;-67
2023/12/11 06:02:04;;;;;;;;;2.00;2.00;;;;;9.36;97.91;99372.28;5101682;28;9856;-68
2023/12/11 06:04:30;;;;;;;;;1.25;1.25;;;;;9.34;98.09;99379.75;5088649;27;9820;-67
2023/12/11 06:06:57;;;;;;;;;4.00;1.00;;;;;9.34;98.01;99372.50;5117572;27;10016;-67
2023/12/11 06:09:23;;;;;;;;;3.00;1.25;;;;;9.33;98.00;99386.97;5112880;28;9893;-67
2023/12/11 06:11:50;;;;;;;;;1.75;1.25;;;;;9.26;98.07;99375.47;5109744;27;10082;-67
2023/12/11 06:14:16;;;;;;;;;5.00;2.25;;;;;9.25;98.63;99373.84;5116681;27;9861;-68
2023/12/11 06:16:43;;;;;;;;;10.50;4.00;;;;;9.18;99.01;99375.75;5095166;27;9982;-67
2023/12/11 06:19:09;;;;;;;;;4.00;2.00;;;;;9.22;99.23;99378.81;5109296;28;10118;-67
2023/12/11 06:21:36;;;;;;;;;8.25;3.00;;;;;9.21;99.13;99378.00;5109045;28;10065;-69
2023/12/11 06:24:03;;;;;;;;;2.25;2.00;;;;;9.14;99.93;99375.38;5090586;28;10088;-66
2023/12/11 06:26:31;;;;;;;;;1.75;1.25;;;;;9.12;100.00;99360.56;5099525;28;9974;-67
2023/12/11 06:29:01;;;;;;;;;5.25;3.00;;;;;9.10;100.00;99351.88;5090613;28;9885;-67
2023/12/11 06:31:29;;;;;;;;;2.50;2.50;;;;;9.09;100.00;99380.59;5105903;28;10172;-66
2023/12/11 06:33:56;;;;;;;;;5.50;2.75;;;;;9.11;100.00;99377.69;5109918;28;10032;-67
2023/12/11 06:36:23;;;;;;;;;1.00;1.00;;;;;9.08;100.00;99370.91;5102610;28;9987;-67
2023/12/11 06:38:52;;;;;;;;;3.00;2.00;;;;;9.15;100.00;99395.00;5103786;28;9977;-68
2023/12/11 06:41:19;;;;;;;;;3.50;2.00;;;;;9.15;100.00;99368.13;5103120;28;10057;-68
2023/12/11 06:43:48;;;;;;;;;4.50;2.00;;;;;9.14;100.00;99374.56;5095736;28;10146;-68
2023/12/11 06:46:15;;;;;;;;;6.50;3.00;;;;;9.11;100.00;99380.38;5098693;28;9888;-67
2023/12/11 06:48:41;;;;;;;;;2.50;2.50;;;;;9.11;100.00;99380.38;5109530;27;10755;-68
2023/12/11 06:51:08;;;;;;;;;3.00;3.00;;;;;9.10;100.00;99398.34;5111536;27;10172;-68
2023/12/11 06:53:35;;;;;;;;;3.00;2.00;;;;;9.14;100.00;99386.13;5106535;28;10132;-67
2023/12/11 06:56:01;;;;;;;;;2.00;2.00;;;;;9.19;100.00;99374.72;5093220;28;10134;-67
2023/12/11 06:58:28;;;;;;;;;3.00;2.75;;;;;9.20;100.00;99389.81;5076783;28;9976;-68
2023/12/11 07:00:54;;;;;;;;;1.75;1.75;;;;;9.14;100.00;99396.03;5095305;27;10074;-70
2023/12/11 07:03:21;;;;;;;;;2.50;2.50;;;;;9.09;100.00;99401.25;5109845;27;9909;-68
2023/12/11 07:05:48;;;;;;;;;3.00;3.00;;;;;9.03;100.00;99408.31;5116723;27;10066;-68
2023/12/11 07:08:15;;;;;;;;;1.25;1.00;;;;;9.04;100.00;99404.59;5120572;27;9916;-67
2023/12/11 07:10:41;;;;;;;;;3.75;2.50;;;;;9.04;100.00;99387.69;5118234;27;10044;-67
2023/12/11 07:13:08;;;;;;;;;4.75;2.25;;;;;9.01;100.00;99402.34;5124779;27;10614;-67
2023/12/11 07:15:34;;;;;;;;;1.00;1.00;;;;;9.00;100.00;99414.13;5100970;27;10054;-67
2023/12/11 07:18:01;;;;;;;;;2.75;2.75;;;;;8.96;100.00;99412.91;5113489;27;9897;-66
2023/12/11 07:20:28;;;;;;;;;3.25;3.00;;;;;9.04;100.00;99425.25;5103433;28;10055;-68
2023/12/11 07:22:55;;;;;;;;;6.00;3.00;;;;;9.00;100.00;99424.03;5092665;28;10119;-68
2023/12/11 07:25:21;;;;;;;;;3.00;3.00;;;;;8.94;100.00;99436.47;5092632;28;10071;-68
2023/12/11 07:27:48;;;;;;;;;6.50;2.50;;;;;8.91;100.00;99424.31;5092534;28;10091;-67
2023/12/11 07:30:14;;;;;;;;;4.25;2.50;;;;;8.94;100.00;99435.63;5094116;28;10074;-66
2023/12/11 07:32:41;;;;;;;;;2.00;1.00;;;;;8.99;100.00;99436.63;5092411;28;10212;-69
2023/12/11 07:35:11;;;;;;;;;7.00;4.25;;;;;9.02;100.00;99438.06;5103194;28;10037;-69
2023/12/11 07:37:40;;;;;;;;;6.50;3.00;;;;;9.06;100.00;99444.63;5112439;28;10050;-69
2023/12/11 07:40:07;;;;;;;;;5.75;3.50;;;;;9.12;100.00;99457.19;5112753;28;10129;-68
2023/12/11 07:42:34;;;;;;;;;3.00;3.00;;;;;9.08;100.00;99453.31;5094351;28;10272;-69
2023/12/11 07:45:04;;;;;;;;;2.00;2.00;;;;;9.05;100.00;99475.19;5112649;28;10518;-69
2023/12/11 07:47:32;;;;;;;;;3.00;3.00;;;;;9.10;100.00;99489.59;5083525;28;10008;-68
2023/12/11 07:50:03;;;;;;;;;5.00;3.00;;;;;9.13;100.00;99491.88;5073856;28;10293;-68
2023/12/11 07:52:30;;;;;;;;;6.25;5.50;;;;;9.15;100.00;99497.84;5107197;28;9985;-70
2023/12/11 07:54:58;;;;;;;;;2.00;2.00;;;;;9.07;100.00;99508.81;5094166;28;10192;-69
2023/12/11 07:57:26;;;;;;;;;5.75;5.75;;;;;9.10;100.00;99510.25;5099173;28;10071;-68
2023/12/11 07:59:53;;;;;;;;;7.25;3.50;;;;;9.10;100.00;99527.19;5091644;28;10067;-68
2023/12/11 08:02:19;;;;;;;;;4.75;4.50;;;;;9.09;100.00;99540.84;5090508;28;10872;-68
2023/12/11 08:04:46;;;;;;;;;8.50;5.75;;;;;9.15;100.00;99553.38;5092396;28;10095;-68
2023/12/11 08:07:13;;;;;;;;;3.50;3.50;;;;;9.17;100.00;99562.06;5090648;28;10062;-69
2023/12/11 08:09:41;;;;;;;;;7.50;6.50;;;;;9.16;100.00;99577.34;5109425;28;9983;-68
2023/12/11 08:12:09;;;;;;;;;6.00;2.00;;;;;9.12;100.00;99578.00;5091859;28;10041;-68
2023/12/11 08:14:35;;;;;;;;;7.25;5.50;;;;;9.11;100.00;99584.38;5073526;28;10866;-68
2023/12/11 08:17:04;;;;;;;;;2.75;2.75;;;;;9.16;100.00;99596.13;5091584;28;10016;-69
2023/12/11 08:19:33;;;;;;;;;5.75;5.00;;;;;9.18;100.00;99606.66;5091288;28;9987;-68
2023/12/11 08:21:59;;;;;;;;;4.00;4.00;;;;;9.21;100.00;99610.78;5091412;28;10093;-67
2023/12/11 08:24:26;;;;;;;;;4.50;3.00;;;;;9.17;100.00;99621.13;5096263;28;9992;-68
2023/12/11 08:26:52;;;;;;;;;2.25;2.25;;;;;9.11;100.00;99633.53;5098743;28;9995;-69
2023/12/11 08:29:21;;;;;;;;;5.50;5.50;;;;;9.14;100.00;99643.03;5090912;28;10210;-68
2023/12/11 08:31:48;;;;;;;;;5.25;5.25;;;;;9.19;100.00;99647.75;5091125;28;10290;-68
2023/12/11 08:34:15;;;;;;;;;3.25;3.25;;;;;9.24;100.00;99659.50;5091026;28;10083;-68
2023/12/11 08:36:42;;;;;;;;;7.00;5.25;;;;;9.21;100.00;99676.03;5091156;28;10244;-68
2023/12/11 08:39:09;;;;;;;;;5.00;3.00;;;;;9.21;100.00;99680.59;5091213;28;10450;-68
2023/12/11 08:41:36;;;;;;;;;2.75;2.75;;;;;9.17;100.00;99674.81;5091108;28;10155;-69
2023/12/11 08:44:03;;;;;;;;;3.00;2.50;;;;;9.18;100.00;99686.38;5091547;28;10208;-68
2023/12/11 08:46:31;;;;;;;;;3.25;3.25;;;;;9.15;100.00;99695.66;5089619;28;10184;-68
2023/12/11 08:48:58;;;;;;;;;5.25;5.25;;;;;9.14;100.00;99694.84;5090653;28;10318;-68
2023/12/11 08:51:25;;;;;;;;;6.25;3.75;;;;;9.12;100.00;99709.53;5092308;28;10965;-68
2023/12/11 08:53:52;;;;;;;;;4.00;1.75;;;;;9.20;100.00;99716.53;5111252;28;10972;-68
2023/12/11 08:56:19;;;;;;;;;4.50;3.50;;;;;9.16;100.00;99729.56;5110752;28;10134;-69
2023/12/11 08:58:46;;;;;;;;;8.25;3.75;;;;;9.16;100.00;99730.38;5092352;28;10891;-68
2023/12/11 09:01:13;;;;;;;;;4.50;3.00;;;;;9.23;100.00;99741.06;5111040;28;10135;-68
2023/12/11 09:03:40;;;;;;;;;6.75;6.00;;;;;9.24;100.00;99748.13;5110719;28;10874;-69
2023/12/11 09:06:07;;;;;;;;;6.75;5.50;;;;;9.24;100.00;99756.16;5111094;28;10192;-68
2023/12/11 09:08:33;;;;;;;;;4.50;4.50;;;;;9.19;100.00;99766.69;5109115;28;10011;-68
2023/12/11 09:11:00;;;;;;;;;5.75;4.25;;;;;9.18;100.00;99775.81;5092821;28;10849;-67
2023/12/11 09:13:26;;;;;;;;;8.50;6.50;;;;;9.25;100.00;99790.03;5111061;28;10059;-68
2023/12/11 09:15:55;;;;;;;;;7.25;3.00;;;;;9.23;100.00;99789.41;5091214;28;10099;-67
2023/12/11 09:18:22;;;;;;;;;9.25;7.25;;;;;9.21;100.00;99796.88;5090457;28;10061;-68
2023/12/11 09:20:49;;;;;;;;;11.75;6.50;;;;;9.16;100.00;99800.19;5090447;28;10217;-67
2023/12/11 09:23:16;;;;;;;;;6.75;6.00;;;;;9.15;100.00;99811.13;5074644;28;10561;-69
2023/12/11 09:25:43;;;;;;;;;6.75;6.50;;;;;9.18;100.00;99816.06;5102190;28;10137;-68
2023/12/11 09:28:09;;;;;;;;;4.75;3.75;;;;;9.22;100.00;99816.47;5072153;28;10274;-68
2023/12/11 09:30:36;;;;;;;;;3.00;3.00;;;;;9.29;100.00;99830.72;5090705;28;9963;-69
2023/12/11 09:33:02;;;;;;;;;3.50;2.50;;;;;9.29;100.00;99833.41;5090243;28;10124;-68
2023/12/11 09:35:29;;;;;;;;;5.75;2.25;;;;;9.31;100.00;99848.25;5090297;28;10092;-68
2023/12/11 09:37:56;;;;;;;;;3.75;3.75;;;;;9.37;99.84;99863.53;5077546;28;10064;-68
2023/12/11 09:40:22;;;;;;;;;7.50;4.50;;;;;9.35;99.99;99859.41;5092364;28;10352;-68
2023/12/11 09:42:50;;;;;;;;;6.75;4.00;;;;;9.35;99.60;99862.91;5097750;28;9986;-68
2023/12/11 09:45:19;;;;;;;;;3.25;3.25;;;;;9.30;99.34;99872.66;5091476;28;10262;-68
2023/12/11 09:47:54;;;;;;;;;4.25;3.00;;;;;9.20;99.61;99883.00;5091738;28;10194;-68
2023/12/11 09:50:38;;;;;;;;;6.75;3.00;;;;;9.19;98.94;99892.06;5102253;28;10025;-68
2023/12/11 09:53:05;;;;;;;;;4.00;2.00;;;;;9.12;98.99;99902.84;5110189;28;10247;-69
2023/12/11 09:55:31;;;;;;;;;5.00;5.00;;;;;9.17;98.26;99911.09;5109140;28;10028;-67
2023/12/11 09:57:58;;;;;;;;;4.00;1.00;;;;;9.14;97.78;99923.06;5090112;28;10068;-68
2023/12/11 10:00:25;;;;;;;;;1.50;1.50;;;;;9.14;97.25;99931.13;5088820;28;9901;-70
2023/12/11 10:02:54;;;;;;;;;2.50;1.25;;;;;9.07;95.99;99941.03;5072195;28;10128;-68
2023/12/11 10:05:25;;;;;;;;;1.75;1.00;;;;;9.07;94.36;99943.72;5072011;28;9973;-68
2023/12/11 10:07:52;;;;;;;;;1.75;1.75;;;;;9.13;93.57;99952.81;5090412;28;9978;-68
2023/12/11 10:10:27;;;;;;;;;0.50;0.50;;;;;9.18;93.10;99969.13;5103132;28;9953;-68
2023/12/11 10:12:54;;;;;;;;;1.00;0.50;;;;;9.21;91.91;99949.91;5076026;28;10026;-69
2023/12/11 10:15:22;;;;;;;;;1.00;1.00;;;;;9.18;91.43;99966.44;5094742;28;9971;-68
2023/12/11 10:18:12;;;;;;;;;1.00;0.75;;;;;9.26;90.75;99979.66;5113954;28;9837;-68
2023/12/11 10:20:41;;;;;;;;;0.00;0.00;;;;;9.31;89.70;99979.03;5101706;28;10280;-66
2023/12/11 10:23:12;;;;;;;;;4.50;0.00;;;;;9.37;89.32;99976.34;5093740;28;9910;-68
2023/12/11 10:25:46;;;;;;;;;3.00;0.50;;;;;9.40;89.81;99986.69;5094027;28;9804;-67
2023/12/11 10:28:15;;;;;;;;;0.75;0.75;;;;;9.38;87.53;99983.38;5093243;28;9812;-68
2023/12/11 10:30:50;;;;;;;;;0.75;0.75;;;;;9.40;87.41;99991.25;5093723;28;9888;-70
2023/12/11 10:33:18;;;;;;;;;0.00;0.00;;;;;9.30;88.26;99980.91;5095344;28;9891;-69
2023/12/11 10:35:46;;;;;;;;;1.00;1.00;;;;;9.40;86.13;99988.56;5114114;28;9769;-68
2023/12/11 10:38:24;;;;;;;;;3.00;0.50;;;;;9.45;86.31;99990.63;5113343;28;9818;-68
2023/12/11 10:40:52;;;;;;;;;0.00;0.00;;;;;9.50;86.01;99991.63;5113300;28;10421;-68
2023/12/11 10:43:18;;;;;;;;;0.00;0.00;;;;;9.52;86.09;99986.03;5111841;28;9849;-68
2023/12/11 10:45:45;;;;;;;;;2.00;0.25;;;;;9.49;85.70;99999.91;5113917;28;9783;-68
2023/12/11 10:48:17;;;;;;;;;1.50;0.00;;;;;9.45;85.31;100007.56;5113675;28;10636;-68
2023/12/11 10:50:45;;;;;;;;;1.50;1.50;;;;;9.37;85.54;100013.13;5112174;28;9869;-67
2023/12/11 10:53:12;;;;;;;;;0.50;0.00;;;;;9.40;85.53;100018.91;5113213;28;9878;-68
2023/12/11 10:55:39;;;;;;;;;0.00;0.00;;;;;9.41;85.51;100028.63;5113595;28;9814;-69
2023/12/11 10:58:10;;;;;;;;;3.50;1.25;;;;;9.36;85.60;100017.69;5099301;28;9804;-68
2023/12/11 11:00:38;;;;;;;;;1.00;0.00;;;;;9.34;86.31;100035.84;5092002;28;9812;-71
2023/12/11 11:03:08;;;;;;;;;0.00;0.00;;;;;9.36;87.08;100044.53;5093074;28;10588;-68
2023/12/11 11:05:35;;;;;;;;;3.00;1.00;;;;;9.38;87.44;100053.19;5092230;28;9744;-68
2023/12/11 11:08:40;;;;;;;;;3.00;1.00;;;;;9.43;87.71;100046.38;5092659;28;10031;-69
2023/12/11 11:11:23;;;;;;;;;2.50;1.75;;;;;9.39;87.77;100054.03;5108340;28;9884;-69
2023/12/11 11:14:17;;;;;;;;;3.00;2.00;;;;;9.34;87.83;100062.72;5111505;28;9911;-68
2023/12/11 11:16:54;;;;;;;;;1.75;1.00;;;;;9.36;87.80;100059.84;5094169;28;9988;-69
2023/12/11 11:19:20;;;;;;;;;1.00;1.00;;;;;9.38;87.44;100066.63;5094192;28;9892;-69
2023/12/11 11:22:00;;;;;;;;;3.00;1.00;;;;;9.31;87.85;100073.84;5113125;28;9860;-69
2023/12/11 11:24:27;;;;;;;;;1.25;1.25;;;;;9.31;87.50;100071.16;5112600;28;9969;-68
2023/12/11 11:26:54;;;;;;;;;0.25;0.00;;;;;9.29;87.61;100075.94;5094671;28;9946;-68
2023/12/11 11:29:39;;;;;;;;;2.00;2.00;;;;;9.29;87.94;100065.19;5093926;28;10635;-68
2023/12/11 11:32:06;;;;;;;;;4.75;1.50;;;;;9.35;87.03;100072.41;5110835;28;10052;-68
2023/12/11 11:34:41;;;;;;;;;1.25;1.00;;;;;9.36;86.99;100079.47;5112550;28;10028;-69
2023/12/11 11:37:14;;;;;;;;;1.00;1.00;;;;;9.37;85.92;100080.28;5112630;28;9785;-67
2023/12/11 11:40:00;;;;;;;;;0.50;0.50;;;;;9.40;85.13;100093.31;5094138;28;9924;-68
2023/12/11 11:42:31;;;;;;;;;0.00;0.00;;;;;9.41;84.96;100092.28;5097885;28;10663;-68
2023/12/11 11:45:00;;;;;;;;;0.50;0.00;;;;;9.33;83.99;100087.91;5074112;28;9972;-68